sensor_id;sensor_type;location;lat;lon;timestamp;temperature;humidity
73572;DHT22;61854;48.510;-2.770;2022-07-18T00:00:32;25.60;34.90
73572;DHT22;61854;48.510;-2.770;2022-07-18T00:02:57;25.60;35.00
73572;DHT22;61854;48.510;-2.770;2022-07-18T00:05:23;25.60;35.20
73572;DHT22;61854;48.510;-2.770;2022-07-18T00:07:49;25.60;35.30
73572;DHT22;61854;48.510;-2.770;2022-07-18T00:10:15;25.60;35.10
73572;DHT22;61854;48.510;-2.770;2022-07-18T00:12:40;25.60;34.70
73572;DHT22;61854;48.510;-2.770;2022-07-18T00:15:06;25.60;34.40
73572;DHT22;61854;48.510;-2.770;2022-07-18T00:17:32;25.60;34.10
73572;DHT22;61854;48.510;-2.770;2022-07-18T00:19:58;25.60;33.90
73572;DHT22;61854;48.510;-2.770;2022-07-18T00:22:23;25.60;33.60
73572;DHT22;61854;48.510;-2.770;2022-07-18T00:24:49;25.70;33.50
73572;DHT22;61854;48.510;-2.770;2022-07-18T00:27:15;25.70;34.40
73572;DHT22;61854;48.510;-2.770;2022-07-18T00:29:41;25.70;33.40
73572;DHT22;61854;48.510;-2.770;2022-07-18T00:32:08;25.70;33.30
73572;DHT22;61854;48.510;-2.770;2022-07-18T00:34:34;25.60;33.20
73572;DHT22;61854;48.510;-2.770;2022-07-18T00:37:00;25.70;33.30
73572;DHT22;61854;48.510;-2.770;2022-07-18T00:39:26;25.60;33.20
73572;DHT22;61854;48.510;-2.770;2022-07-18T00:41:52;25.60;33.00
73572;DHT22;61854;48.510;-2.770;2022-07-18T00:44:19;25.60;33.00
73572;DHT22;61854;48.510;-2.770;2022-07-18T00:46:45;25.60;33.00
73572;DHT22;61854;48.510;-2.770;2022-07-18T00:49:11;25.60;33.00
73572;DHT22;61854;48.510;-2.770;2022-07-18T00:51:37;25.50;33.80
73572;DHT22;61854;48.510;-2.770;2022-07-18T00:54:04;25.50;32.80
73572;DHT22;61854;48.510;-2.770;2022-07-18T00:56:30;25.50;32.70
73572;DHT22;61854;48.510;-2.770;2022-07-18T00:58:56;25.50;32.70
73572;DHT22;61854;48.510;-2.770;2022-07-18T01:01:21;25.50;32.70
73572;DHT22;61854;48.510;-2.770;2022-07-18T01:04:06;25.50;32.70
73572;DHT22;61854;48.510;-2.770;2022-07-18T01:06:31;25.40;32.70
73572;DHT22;61854;48.510;-2.770;2022-07-18T01:08:57;25.40;32.60
73572;DHT22;61854;48.510;-2.770;2022-07-18T01:11:23;25.40;32.60
73572;DHT22;61854;48.510;-2.770;2022-07-18T01:13:50;25.40;32.50
73572;DHT22;61854;48.510;-2.770;2022-07-18T01:16:17;25.30;32.40
73572;DHT22;61854;48.510;-2.770;2022-07-18T01:18:49;25.40;32.30
73572;DHT22;61854;48.510;-2.770;2022-07-18T01:21:16;25.30;32.20
73572;DHT22;61854;48.510;-2.770;2022-07-18T01:23:42;25.30;32.30
73572;DHT22;61854;48.510;-2.770;2022-07-18T01:26:09;25.30;32.40
73572;DHT22;61854;48.510;-2.770;2022-07-18T01:28:35;25.30;32.50
73572;DHT22;61854;48.510;-2.770;2022-07-18T01:31:01;25.20;32.50
73572;DHT22;61854;48.510;-2.770;2022-07-18T01:33:27;25.20;32.50
73572;DHT22;61854;48.510;-2.770;2022-07-18T01:35:53;25.10;32.50
73572;DHT22;61854;48.510;-2.770;2022-07-18T01:38:18;25.10;32.60
73572;DHT22;61854;48.510;-2.770;2022-07-18T01:40:45;25.10;32.50
73572;DHT22;61854;48.510;-2.770;2022-07-18T01:43:11;25.10;32.50
73572;DHT22;61854;48.510;-2.770;2022-07-18T01:45:37;25.00;32.50
73572;DHT22;61854;48.510;-2.770;2022-07-18T01:48:03;25.00;32.60
73572;DHT22;61854;48.510;-2.770;2022-07-18T01:50:28;25.00;32.60
73572;DHT22;61854;48.510;-2.770;2022-07-18T01:52:54;25.00;32.60
73572;DHT22;61854;48.510;-2.770;2022-07-18T01:55:20;25.00;32.70
73572;DHT22;61854;48.510;-2.770;2022-07-18T01:57:45;25.00;32.80
73572;DHT22;61854;48.510;-2.770;2022-07-18T02:00:11;24.90;32.80
73572;DHT22;61854;48.510;-2.770;2022-07-18T02:02:38;24.90;32.80
73572;DHT22;61854;48.510;-2.770;2022-07-18T02:05:05;24.90;33.80
73572;DHT22;61854;48.510;-2.770;2022-07-18T02:07:35;24.90;32.70
73572;DHT22;61854;48.510;-2.770;2022-07-18T02:10:11;24.90;32.70
73572;DHT22;61854;48.510;-2.770;2022-07-18T02:12:37;24.90;32.80
73572;DHT22;61854;48.510;-2.770;2022-07-18T02:15:04;24.80;32.80
73572;DHT22;61854;48.510;-2.770;2022-07-18T02:17:30;24.80;32.80
73572;DHT22;61854;48.510;-2.770;2022-07-18T02:19:56;24.80;32.90
73572;DHT22;61854;48.510;-2.770;2022-07-18T02:22:22;24.80;32.80
73572;DHT22;61854;48.510;-2.770;2022-07-18T02:24:48;24.80;32.90
73572;DHT22;61854;48.510;-2.770;2022-07-18T02:27:14;24.80;33.20
73572;DHT22;61854;48.510;-2.770;2022-07-18T02:29:39;24.80;33.50
73572;DHT22;61854;48.510;-2.770;2022-07-18T02:32:05;24.70;33.70
73572;DHT22;61854;48.510;-2.770;2022-07-18T02:34:31;24.70;33.80
73572;DHT22;61854;48.510;-2.770;2022-07-18T02:36:57;24.60;33.80
73572;DHT22;61854;48.510;-2.770;2022-07-18T02:39:22;24.60;33.90
73572;DHT22;61854;48.510;-2.770;2022-07-18T02:41:48;24.60;34.30
73572;DHT22;61854;48.510;-2.770;2022-07-18T02:44:14;24.50;34.20
73572;DHT22;61854;48.510;-2.770;2022-07-18T02:46:40;24.50;34.40
73572;DHT22;61854;48.510;-2.770;2022-07-18T02:49:06;24.40;34.30
73572;DHT22;61854;48.510;-2.770;2022-07-18T02:51:32;24.40;34.30
73572;DHT22;61854;48.510;-2.770;2022-07-18T02:53:57;24.40;34.30
73572;DHT22;61854;48.510;-2.770;2022-07-18T02:56:26;24.40;34.40
73572;DHT22;61854;48.510;-2.770;2022-07-18T02:58:51;24.40;34.30
73572;DHT22;61854;48.510;-2.770;2022-07-18T03:01:17;24.40;34.40
73572;DHT22;61854;48.510;-2.770;2022-07-18T03:03:42;24.40;34.50
73572;DHT22;61854;48.510;-2.770;2022-07-18T03:06:08;24.40;34.80
73572;DHT22;61854;48.510;-2.770;2022-07-18T03:08:34;24.30;34.90
73572;DHT22;61854;48.510;-2.770;2022-07-18T03:10:59;24.30;35.10
73572;DHT22;61854;48.510;-2.770;2022-07-18T03:13:25;24.20;35.30
73572;DHT22;61854;48.510;-2.770;2022-07-18T03:15:50;24.20;35.40
73572;DHT22;61854;48.510;-2.770;2022-07-18T03:18:16;24.20;35.60
73572;DHT22;61854;48.510;-2.770;2022-07-18T03:20:43;24.20;35.80
73572;DHT22;61854;48.510;-2.770;2022-07-18T03:23:09;24.10;35.90
73572;DHT22;61854;48.510;-2.770;2022-07-18T03:25:35;24.10;36.10
73572;DHT22;61854;48.510;-2.770;2022-07-18T03:28:01;24.10;36.20
73572;DHT22;61854;48.510;-2.770;2022-07-18T03:30:27;24.10;36.30
73572;DHT22;61854;48.510;-2.770;2022-07-18T03:32:52;24.00;36.30
73572;DHT22;61854;48.510;-2.770;2022-07-18T03:35:18;24.00;36.30
73572;DHT22;61854;48.510;-2.770;2022-07-18T03:37:44;24.00;36.40
73572;DHT22;61854;48.510;-2.770;2022-07-18T03:40:10;24.00;36.60
73572;DHT22;61854;48.510;-2.770;2022-07-18T03:42:39;24.00;36.50
73572;DHT22;61854;48.510;-2.770;2022-07-18T03:45:06;23.90;36.50
73572;DHT22;61854;48.510;-2.770;2022-07-18T03:47:33;24.00;36.40
73572;DHT22;61854;48.510;-2.770;2022-07-18T03:49:59;23.90;36.30
73572;DHT22;61854;48.510;-2.770;2022-07-18T03:52:24;23.90;36.30
73572;DHT22;61854;48.510;-2.770;2022-07-18T03:54:50;23.90;36.60
73572;DHT22;61854;48.510;-2.770;2022-07-18T03:57:16;23.90;36.70
73572;DHT22;61854;48.510;-2.770;2022-07-18T03:59:41;23.90;36.90
73572;DHT22;61854;48.510;-2.770;2022-07-18T04:02:07;23.90;36.90
73572;DHT22;61854;48.510;-2.770;2022-07-18T04:04:33;23.90;36.90
73572;DHT22;61854;48.510;-2.770;2022-07-18T04:06:58;23.90;36.90
73572;DHT22;61854;48.510;-2.770;2022-07-18T04:09:28;23.90;37.00
73572;DHT22;61854;48.510;-2.770;2022-07-18T04:11:54;23.80;37.50
73572;DHT22;61854;48.510;-2.770;2022-07-18T04:14:20;23.80;37.40
73572;DHT22;61854;48.510;-2.770;2022-07-18T04:16:48;23.80;37.40
73572;DHT22;61854;48.510;-2.770;2022-07-18T04:19:14;23.70;38.30
73572;DHT22;61854;48.510;-2.770;2022-07-18T04:21:39;23.70;37.10
73572;DHT22;61854;48.510;-2.770;2022-07-18T04:24:05;23.70;37.40
73572;DHT22;61854;48.510;-2.770;2022-07-18T04:26:31;23.60;37.50
73572;DHT22;61854;48.510;-2.770;2022-07-18T04:28:56;23.60;37.60
73572;DHT22;61854;48.510;-2.770;2022-07-18T04:31:22;23.60;37.80
73572;DHT22;61854;48.510;-2.770;2022-07-18T04:33:47;23.60;37.90
73572;DHT22;61854;48.510;-2.770;2022-07-18T04:36:13;23.60;38.10
73572;DHT22;61854;48.510;-2.770;2022-07-18T04:38:38;23.50;38.50
73572;DHT22;61854;48.510;-2.770;2022-07-18T04:41:05;23.50;39.20
73572;DHT22;61854;48.510;-2.770;2022-07-18T04:43:31;23.40;39.60
73572;DHT22;61854;48.510;-2.770;2022-07-18T04:45:57;23.40;40.00
73572;DHT22;61854;48.510;-2.770;2022-07-18T04:48:23;23.40;40.60
73572;DHT22;61854;48.510;-2.770;2022-07-18T04:50:48;23.40;41.20
73572;DHT22;61854;48.510;-2.770;2022-07-18T04:53:14;23.30;41.50
73572;DHT22;61854;48.510;-2.770;2022-07-18T04:55:40;23.30;41.60
73572;DHT22;61854;48.510;-2.770;2022-07-18T04:58:05;23.20;42.00
73572;DHT22;61854;48.510;-2.770;2022-07-18T05:00:31;23.20;41.90
73572;DHT22;61854;48.510;-2.770;2022-07-18T05:02:57;23.20;41.80
73572;DHT22;61854;48.510;-2.770;2022-07-18T05:05:25;23.20;41.70
73572;DHT22;61854;48.510;-2.770;2022-07-18T05:07:51;23.20;41.00
73572;DHT22;61854;48.510;-2.770;2022-07-18T05:10:18;23.30;40.60
73572;DHT22;61854;48.510;-2.770;2022-07-18T05:12:47;23.30;40.00
73572;DHT22;61854;48.510;-2.770;2022-07-18T05:15:14;23.40;39.60
73572;DHT22;61854;48.510;-2.770;2022-07-18T05:17:41;23.50;39.20
73572;DHT22;61854;48.510;-2.770;2022-07-18T05:20:09;23.60;39.10
73572;DHT22;61854;48.510;-2.770;2022-07-18T05:22:36;23.60;39.20
73572;DHT22;61854;48.510;-2.770;2022-07-18T05:25:04;23.70;39.20
73572;DHT22;61854;48.510;-2.770;2022-07-18T05:27:30;23.70;39.20
73572;DHT22;61854;48.510;-2.770;2022-07-18T05:29:56;23.80;39.20
73572;DHT22;61854;48.510;-2.770;2022-07-18T05:32:24;23.80;39.10
73572;DHT22;61854;48.510;-2.770;2022-07-18T05:34:50;23.90;39.10
73572;DHT22;61854;48.510;-2.770;2022-07-18T05:37:16;23.90;38.80
73572;DHT22;61854;48.510;-2.770;2022-07-18T05:39:41;23.90;38.60
73572;DHT22;61854;48.510;-2.770;2022-07-18T05:42:07;24.00;38.70
73572;DHT22;61854;48.510;-2.770;2022-07-18T05:44:33;24.10;38.60
73572;DHT22;61854;48.510;-2.770;2022-07-18T05:46:59;24.20;38.90
73572;DHT22;61854;48.510;-2.770;2022-07-18T05:49:24;24.20;39.00
73572;DHT22;61854;48.510;-2.770;2022-07-18T05:51:50;24.20;39.40
73572;DHT22;61854;48.510;-2.770;2022-07-18T05:54:15;24.20;39.60
73572;DHT22;61854;48.510;-2.770;2022-07-18T05:56:47;24.30;39.80
73572;DHT22;61854;48.510;-2.770;2022-07-18T05:59:13;24.20;39.90
73572;DHT22;61854;48.510;-2.770;2022-07-18T06:01:39;24.30;40.00
73572;DHT22;61854;48.510;-2.770;2022-07-18T06:04:05;24.30;39.70
73572;DHT22;61854;48.510;-2.770;2022-07-18T06:06:31;24.30;39.50
73572;DHT22;61854;48.510;-2.770;2022-07-18T06:08:57;24.40;39.40
73572;DHT22;61854;48.510;-2.770;2022-07-18T06:11:22;24.50;39.10
73572;DHT22;61854;48.510;-2.770;2022-07-18T06:13:48;24.50;38.70
73572;DHT22;61854;48.510;-2.770;2022-07-18T06:16:14;24.50;38.60
73572;DHT22;61854;48.510;-2.770;2022-07-18T06:18:39;24.60;38.80
73572;DHT22;61854;48.510;-2.770;2022-07-18T06:21:05;24.60;39.60
73572;DHT22;61854;48.510;-2.770;2022-07-18T06:23:31;24.70;38.30
73572;DHT22;61854;48.510;-2.770;2022-07-18T06:25:57;24.70;38.00
73572;DHT22;61854;48.510;-2.770;2022-07-18T06:28:23;24.80;37.80
73572;DHT22;61854;48.510;-2.770;2022-07-18T06:30:48;24.80;37.50
73572;DHT22;61854;48.510;-2.770;2022-07-18T06:33:14;24.90;36.60
73572;DHT22;61854;48.510;-2.770;2022-07-18T06:35:40;24.90;36.60
73572;DHT22;61854;48.510;-2.770;2022-07-18T06:38:06;25.00;36.20
73572;DHT22;61854;48.510;-2.770;2022-07-18T06:40:32;25.00;36.10
73572;DHT22;61854;48.510;-2.770;2022-07-18T06:42:58;25.10;35.90
73572;DHT22;61854;48.510;-2.770;2022-07-18T06:45:23;25.10;35.90
73572;DHT22;61854;48.510;-2.770;2022-07-18T06:47:49;25.20;35.80
73572;DHT22;61854;48.510;-2.770;2022-07-18T06:50:15;25.30;35.60
73572;DHT22;61854;48.510;-2.770;2022-07-18T06:52:42;25.30;35.80
73572;DHT22;61854;48.510;-2.770;2022-07-18T06:55:09;25.40;35.50
73572;DHT22;61854;48.510;-2.770;2022-07-18T06:57:36;25.40;35.30
73572;DHT22;61854;48.510;-2.770;2022-07-18T07:00:02;25.50;35.40
73572;DHT22;61854;48.510;-2.770;2022-07-18T07:02:28;25.50;35.10
73572;DHT22;61854;48.510;-2.770;2022-07-18T07:04:54;25.60;35.20
73572;DHT22;61854;48.510;-2.770;2022-07-18T07:07:19;25.70;34.80
73572;DHT22;61854;48.510;-2.770;2022-07-18T07:09:45;25.70;35.10
73572;DHT22;61854;48.510;-2.770;2022-07-18T07:12:10;25.80;35.20
73572;DHT22;61854;48.510;-2.770;2022-07-18T07:14:37;25.80;34.70
73572;DHT22;61854;48.510;-2.770;2022-07-18T07:17:03;25.90;34.80
73572;DHT22;61854;48.510;-2.770;2022-07-18T07:19:29;25.90;34.70
73572;DHT22;61854;48.510;-2.770;2022-07-18T07:21:55;26.00;34.10
73572;DHT22;61854;48.510;-2.770;2022-07-18T07:24:20;26.00;34.00
73572;DHT22;61854;48.510;-2.770;2022-07-18T07:26:46;26.10;34.00
73572;DHT22;61854;48.510;-2.770;2022-07-18T07:29:12;26.20;33.70
73572;DHT22;61854;48.510;-2.770;2022-07-18T07:31:38;26.20;33.50
73572;DHT22;61854;48.510;-2.770;2022-07-18T07:34:04;26.30;33.50
73572;DHT22;61854;48.510;-2.770;2022-07-18T07:36:29;26.30;32.50
73572;DHT22;61854;48.510;-2.770;2022-07-18T07:38:55;26.40;32.20
73572;DHT22;61854;48.510;-2.770;2022-07-18T07:41:22;26.50;31.80
73572;DHT22;61854;48.510;-2.770;2022-07-18T07:43:48;26.50;31.80
73572;DHT22;61854;48.510;-2.770;2022-07-18T07:46:13;26.60;31.70
73572;DHT22;61854;48.510;-2.770;2022-07-18T07:48:39;26.60;31.80
73572;DHT22;61854;48.510;-2.770;2022-07-18T07:51:05;26.70;31.60
73572;DHT22;61854;48.510;-2.770;2022-07-18T07:53:31;26.70;31.90
73572;DHT22;61854;48.510;-2.770;2022-07-18T07:55:57;26.70;32.50
73572;DHT22;61854;48.510;-2.770;2022-07-18T07:58:23;26.80;33.00
73572;DHT22;61854;48.510;-2.770;2022-07-18T08:00:48;26.80;33.10
73572;DHT22;61854;48.510;-2.770;2022-07-18T08:03:14;26.90;33.20
73572;DHT22;61854;48.510;-2.770;2022-07-18T08:05:48;27.00;33.20
73572;DHT22;61854;48.510;-2.770;2022-07-18T08:08:14;27.00;32.90
73572;DHT22;61854;48.510;-2.770;2022-07-18T08:10:40;27.10;32.80
73572;DHT22;61854;48.510;-2.770;2022-07-18T08:13:06;27.20;32.50
73572;DHT22;61854;48.510;-2.770;2022-07-18T08:15:32;27.20;32.30
73572;DHT22;61854;48.510;-2.770;2022-07-18T08:17:58;27.30;32.40
73572;DHT22;61854;48.510;-2.770;2022-07-18T08:20:24;27.30;32.20
73572;DHT22;61854;48.510;-2.770;2022-07-18T08:22:53;27.40;32.30
73572;DHT22;61854;48.510;-2.770;2022-07-18T08:25:20;27.40;32.10
73572;DHT22;61854;48.510;-2.770;2022-07-18T08:27:46;27.40;31.80
73572;DHT22;61854;48.510;-2.770;2022-07-18T08:30:11;27.50;31.80
73572;DHT22;61854;48.510;-2.770;2022-07-18T08:32:37;27.60;31.80
73572;DHT22;61854;48.510;-2.770;2022-07-18T08:35:03;27.60;32.20
73572;DHT22;61854;48.510;-2.770;2022-07-18T08:37:29;27.70;31.90
73572;DHT22;61854;48.510;-2.770;2022-07-18T08:39:55;27.80;31.50
73572;DHT22;61854;48.510;-2.770;2022-07-18T08:42:23;27.90;31.50
73572;DHT22;61854;48.510;-2.770;2022-07-18T08:44:50;28.00;31.00
73572;DHT22;61854;48.510;-2.770;2022-07-18T08:47:17;28.10;30.90
73572;DHT22;61854;48.510;-2.770;2022-07-18T08:49:44;28.30;32.10
73572;DHT22;61854;48.510;-2.770;2022-07-18T08:52:10;28.40;30.90
73572;DHT22;61854;48.510;-2.770;2022-07-18T08:54:36;28.40;30.00
73572;DHT22;61854;48.510;-2.770;2022-07-18T08:57:02;28.50;30.20
73572;DHT22;61854;48.510;-2.770;2022-07-18T08:59:28;28.60;30.00
73572;DHT22;61854;48.510;-2.770;2022-07-18T09:01:53;28.70;30.00
73572;DHT22;61854;48.510;-2.770;2022-07-18T09:04:45;28.70;29.80
73572;DHT22;61854;48.510;-2.770;2022-07-18T09:07:29;28.80;29.90
73572;DHT22;61854;48.510;-2.770;2022-07-18T09:09:57;28.80;29.70
73572;DHT22;61854;48.510;-2.770;2022-07-18T09:12:27;28.90;29.70
73572;DHT22;61854;48.510;-2.770;2022-07-18T09:14:53;29.00;29.80
73572;DHT22;61854;48.510;-2.770;2022-07-18T09:17:20;29.00;29.30
73572;DHT22;61854;48.510;-2.770;2022-07-18T09:22:25;29.20;29.20
73572;DHT22;61854;48.510;-2.770;2022-07-18T09:27:47;29.30;27.80
73572;DHT22;61854;48.510;-2.770;2022-07-18T09:30:32;29.40;27.60
73572;DHT22;61854;48.510;-2.770;2022-07-18T09:35:37;29.60;27.80
73572;DHT22;61854;48.510;-2.770;2022-07-18T09:43:05;29.80;27.00
73572;DHT22;61854;48.510;-2.770;2022-07-18T09:48:06;29.90;27.30
73572;DHT22;61854;48.510;-2.770;2022-07-18T09:50:51;29.90;27.50
73572;DHT22;61854;48.510;-2.770;2022-07-18T09:53:30;29.90;26.90
73572;DHT22;61854;48.510;-2.770;2022-07-18T09:55:57;30.00;26.20
73572;DHT22;61854;48.510;-2.770;2022-07-18T09:58:27;30.10;25.70
73572;DHT22;61854;48.510;-2.770;2022-07-18T10:00:55;30.20;25.60
73572;DHT22;61854;48.510;-2.770;2022-07-18T10:03:22;30.20;26.10
73572;DHT22;61854;48.510;-2.770;2022-07-18T10:05:49;30.30;25.70
73572;DHT22;61854;48.510;-2.770;2022-07-18T10:08:20;30.40;25.50
73572;DHT22;61854;48.510;-2.770;2022-07-18T10:10:48;30.50;25.30
73572;DHT22;61854;48.510;-2.770;2022-07-18T10:13:15;30.60;24.80
73572;DHT22;61854;48.510;-2.770;2022-07-18T10:15:42;30.60;25.50
73572;DHT22;61854;48.510;-2.770;2022-07-18T10:18:16;30.50;25.80
73572;DHT22;61854;48.510;-2.770;2022-07-18T10:20:56;30.60;25.20
73572;DHT22;61854;48.510;-2.770;2022-07-18T10:31:59;31.10;23.80
73572;DHT22;61854;48.510;-2.770;2022-07-18T10:34:29;31.10;24.00
73572;DHT22;61854;48.510;-2.770;2022-07-18T10:39:34;31.20;24.00
73572;DHT22;61854;48.510;-2.770;2022-07-18T11:00:30;31.60;23.40
73572;DHT22;61854;48.510;-2.770;2022-07-18T11:16:16;32.20;22.80
73572;DHT22;61854;48.510;-2.770;2022-07-18T11:21:32;32.30;22.90
73572;DHT22;61854;48.510;-2.770;2022-07-18T11:24:06;32.50;22.80
73572;DHT22;61854;48.510;-2.770;2022-07-18T11:26:37;32.50;22.10
73572;DHT22;61854;48.510;-2.770;2022-07-18T11:29:10;32.50;22.10
73572;DHT22;61854;48.510;-2.770;2022-07-18T11:32:03;32.60;22.10
73572;DHT22;61854;48.510;-2.770;2022-07-18T11:34:30;32.60;22.20
73572;DHT22;61854;48.510;-2.770;2022-07-18T11:36:55;32.70;22.80
73572;DHT22;61854;48.510;-2.770;2022-07-18T11:39:32;32.70;21.80
73572;DHT22;61854;48.510;-2.770;2022-07-18T11:42:00;32.80;21.60
73572;DHT22;61854;48.510;-2.770;2022-07-18T11:44:27;32.90;21.40
73572;DHT22;61854;48.510;-2.770;2022-07-18T11:47:10;33.10;21.10
73572;DHT22;61854;48.510;-2.770;2022-07-18T11:49:37;33.20;22.00
73572;DHT22;61854;48.510;-2.770;2022-07-18T11:52:04;33.30;20.90
73572;DHT22;61854;48.510;-2.770;2022-07-18T11:54:31;33.40;21.20
73572;DHT22;61854;48.510;-2.770;2022-07-18T11:56:58;33.40;22.30
73572;DHT22;61854;48.510;-2.770;2022-07-18T11:59:35;33.40;21.40
73572;DHT22;61854;48.510;-2.770;2022-07-18T12:02:01;33.60;21.60
73572;DHT22;61854;48.510;-2.770;2022-07-18T12:04:27;33.60;22.60
73572;DHT22;61854;48.510;-2.770;2022-07-18T12:07:19;33.70;21.70
73572;DHT22;61854;48.510;-2.770;2022-07-18T12:09:46;33.80;21.30
73572;DHT22;61854;48.510;-2.770;2022-07-18T12:12:14;33.90;21.20
73572;DHT22;61854;48.510;-2.770;2022-07-18T12:14:40;34.00;21.80
73572;DHT22;61854;48.510;-2.770;2022-07-18T12:17:06;34.20;21.50
73572;DHT22;61854;48.510;-2.770;2022-07-18T12:19:37;34.20;21.10
73572;DHT22;61854;48.510;-2.770;2022-07-18T12:22:09;34.30;20.90
73572;DHT22;61854;48.510;-2.770;2022-07-18T12:24:40;34.40;20.70
73572;DHT22;61854;48.510;-2.770;2022-07-18T12:30:07;34.70;19.90
73572;DHT22;61854;48.510;-2.770;2022-07-18T12:32:50;34.80;19.40
73572;DHT22;61854;48.510;-2.770;2022-07-18T12:40:19;35.10;19.50
73572;DHT22;61854;48.510;-2.770;2022-07-18T12:42:45;35.20;19.90
73572;DHT22;61854;48.510;-2.770;2022-07-18T12:45:12;35.30;20.10
73572;DHT22;61854;48.510;-2.770;2022-07-18T12:47:39;35.40;19.20
73572;DHT22;61854;48.510;-2.770;2022-07-18T12:50:06;35.40;19.70
73572;DHT22;61854;48.510;-2.770;2022-07-18T12:52:32;35.50;19.60
73572;DHT22;61854;48.510;-2.770;2022-07-18T12:54:58;35.60;19.40
73572;DHT22;61854;48.510;-2.770;2022-07-18T12:57:25;35.70;19.80
73572;DHT22;61854;48.510;-2.770;2022-07-18T12:59:51;35.90;18.70
73572;DHT22;61854;48.510;-2.770;2022-07-18T13:02:17;36.10;18.60
73572;DHT22;61854;48.510;-2.770;2022-07-18T13:04:42;36.20;18.40
73572;DHT22;61854;48.510;-2.770;2022-07-18T13:07:09;36.50;18.60
73572;DHT22;61854;48.510;-2.770;2022-07-18T13:09:34;36.90;18.00
73572;DHT22;61854;48.510;-2.770;2022-07-18T13:12:00;37.60;17.10
73572;DHT22;61854;48.510;-2.770;2022-07-18T13:14:26;38.00;17.30
73572;DHT22;61854;48.510;-2.770;2022-07-18T13:16:52;38.50;16.60
73572;DHT22;61854;48.510;-2.770;2022-07-18T13:19:19;38.80;16.10
73572;DHT22;61854;48.510;-2.770;2022-07-18T13:21:46;39.20;16.00
73572;DHT22;61854;48.510;-2.770;2022-07-18T13:24:12;39.50;15.70
73572;DHT22;61854;48.510;-2.770;2022-07-18T13:26:38;39.70;15.50
73572;DHT22;61854;48.510;-2.770;2022-07-18T13:29:04;39.90;15.20
73572;DHT22;61854;48.510;-2.770;2022-07-18T13:31:30;40.10;15.10
73572;DHT22;61854;48.510;-2.770;2022-07-18T13:33:56;40.30;14.90
73572;DHT22;61854;48.510;-2.770;2022-07-18T13:36:22;40.50;15.10
73572;DHT22;61854;48.510;-2.770;2022-07-18T13:38:48;40.70;14.60
73572;DHT22;61854;48.510;-2.770;2022-07-18T13:41:14;41.10;14.40
73572;DHT22;61854;48.510;-2.770;2022-07-18T13:43:40;41.30;14.00
73572;DHT22;61854;48.510;-2.770;2022-07-18T13:46:07;41.40;13.60
73572;DHT22;61854;48.510;-2.770;2022-07-18T13:48:32;41.60;13.50
73572;DHT22;61854;48.510;-2.770;2022-07-18T13:50:58;41.70;12.90
73572;DHT22;61854;48.510;-2.770;2022-07-18T13:53:25;41.70;13.60
73572;DHT22;61854;48.510;-2.770;2022-07-18T13:55:50;41.80;13.40
73572;DHT22;61854;48.510;-2.770;2022-07-18T13:58:16;42.00;13.20
73572;DHT22;61854;48.510;-2.770;2022-07-18T14:00:43;42.10;13.30
73572;DHT22;61854;48.510;-2.770;2022-07-18T14:03:09;42.10;13.00
73572;DHT22;61854;48.510;-2.770;2022-07-18T14:05:35;42.10;12.80
73572;DHT22;61854;48.510;-2.770;2022-07-18T14:08:01;42.40;12.80
73572;DHT22;61854;48.510;-2.770;2022-07-18T14:10:27;42.50;12.10
73572;DHT22;61854;48.510;-2.770;2022-07-18T14:12:52;42.30;12.40
73572;DHT22;61854;48.510;-2.770;2022-07-18T14:15:18;42.30;12.60
73572;DHT22;61854;48.510;-2.770;2022-07-18T14:17:44;42.60;11.90
73572;DHT22;61854;48.510;-2.770;2022-07-18T14:20:11;42.80;11.50
73572;DHT22;61854;48.510;-2.770;2022-07-18T14:22:39;42.80;11.60
73572;DHT22;61854;48.510;-2.770;2022-07-18T14:25:06;43.00;11.70
73572;DHT22;61854;48.510;-2.770;2022-07-18T14:27:33;43.00;12.00
73572;DHT22;61854;48.510;-2.770;2022-07-18T14:29:59;43.10;12.20
73572;DHT22;61854;48.510;-2.770;2022-07-18T14:32:26;43.30;11.60
73572;DHT22;61854;48.510;-2.770;2022-07-18T14:34:52;43.60;11.20
73572;DHT22;61854;48.510;-2.770;2022-07-18T14:37:17;43.90;11.50
73572;DHT22;61854;48.510;-2.770;2022-07-18T14:39:43;43.90;10.80
73572;DHT22;61854;48.510;-2.770;2022-07-18T14:42:09;43.90;11.40
73572;DHT22;61854;48.510;-2.770;2022-07-18T14:44:35;44.00;11.00
73572;DHT22;61854;48.510;-2.770;2022-07-18T14:47:01;44.20;11.30
73572;DHT22;61854;48.510;-2.770;2022-07-18T14:49:26;44.30;11.40
73572;DHT22;61854;48.510;-2.770;2022-07-18T14:51:52;44.50;10.50
73572;DHT22;61854;48.510;-2.770;2022-07-18T14:54:17;44.40;10.70
73572;DHT22;61854;48.510;-2.770;2022-07-18T14:56:43;44.40;10.40
73572;DHT22;61854;48.510;-2.770;2022-07-18T14:59:09;44.30;10.90
73572;DHT22;61854;48.510;-2.770;2022-07-18T15:01:34;44.40;10.80
73572;DHT22;61854;48.510;-2.770;2022-07-18T15:04:00;44.60;10.50
73572;DHT22;61854;48.510;-2.770;2022-07-18T15:06:26;44.60;10.80
73572;DHT22;61854;48.510;-2.770;2022-07-18T15:08:52;44.90;10.40
73572;DHT22;61854;48.510;-2.770;2022-07-18T15:11:17;44.90;10.20
73572;DHT22;61854;48.510;-2.770;2022-07-18T15:13:46;44.90;11.30
73572;DHT22;61854;48.510;-2.770;2022-07-18T15:16:12;45.20;10.60
73572;DHT22;61854;48.510;-2.770;2022-07-18T15:18:38;45.20;11.40
73572;DHT22;61854;48.510;-2.770;2022-07-18T15:21:03;45.00;10.60
73572;DHT22;61854;48.510;-2.770;2022-07-18T15:23:29;44.80;10.40
73572;DHT22;61854;48.510;-2.770;2022-07-18T15:25:55;44.80;10.90
73572;DHT22;61854;48.510;-2.770;2022-07-18T15:28:20;44.80;10.80
73572;DHT22;61854;48.510;-2.770;2022-07-18T15:30:48;45.10;10.40
73572;DHT22;61854;48.510;-2.770;2022-07-18T15:33:14;45.50;10.00
73572;DHT22;61854;48.510;-2.770;2022-07-18T15:35:40;45.60;10.00
73572;DHT22;61854;48.510;-2.770;2022-07-18T15:38:05;45.50;10.30
73572;DHT22;61854;48.510;-2.770;2022-07-18T15:40:31;45.50;9.90
73572;DHT22;61854;48.510;-2.770;2022-07-18T15:42:57;45.70;9.60
73572;DHT22;61854;48.510;-2.770;2022-07-18T15:45:22;45.90;9.70
73572;DHT22;61854;48.510;-2.770;2022-07-18T15:47:48;46.10;9.50
73572;DHT22;61854;48.510;-2.770;2022-07-18T15:50:14;45.90;9.30
73572;DHT22;61854;48.510;-2.770;2022-07-18T15:52:40;45.90;9.50
73572;DHT22;61854;48.510;-2.770;2022-07-18T15:55:06;45.70;10.00
73572;DHT22;61854;48.510;-2.770;2022-07-18T15:57:32;45.60;9.60
73572;DHT22;61854;48.510;-2.770;2022-07-18T15:59:58;45.50;10.00
73572;DHT22;61854;48.510;-2.770;2022-07-18T16:02:23;45.50;10.10
73572;DHT22;61854;48.510;-2.770;2022-07-18T16:04:49;45.60;9.60
73572;DHT22;61854;48.510;-2.770;2022-07-18T16:07:15;45.40;10.00
73572;DHT22;61854;48.510;-2.770;2022-07-18T16:09:40;45.50;10.10
73572;DHT22;61854;48.510;-2.770;2022-07-18T16:12:06;45.50;10.20
73572;DHT22;61854;48.510;-2.770;2022-07-18T16:14:33;45.50;10.40
73572;DHT22;61854;48.510;-2.770;2022-07-18T16:16:59;45.50;10.20
73572;DHT22;61854;48.510;-2.770;2022-07-18T16:19:24;45.60;10.60
73572;DHT22;61854;48.510;-2.770;2022-07-18T16:21:50;45.40;10.00
73572;DHT22;61854;48.510;-2.770;2022-07-18T16:24:16;45.20;10.40